VTCC/CNX METAR and TAF weather

Enter ICAO airport designator
Station Type Date Time Source
VTCC METAR 2019/08/18 08:30 UTC NOAA

VTCC 180830Z 23005KT 170V290 9999 BKN035 32/22 Q1009 NOSIG


Station Type Date Time Source
VTCC Decoded METAR 2019/08/18 08:30 UTC NOAA

Station name not available
Aug 18, 2019 - 04:30 AM EDT / 2019.08.18 0830 UTC
Wind: from the SW (230 degrees) at 6 MPH (5 KT) (direction variable):0
Visibility: greater than 7 mile(s):0
Sky conditions: mostly cloudy
Temperature: 89 F (32 C)
Heat index: 95.0 F (35.0 C):1
Dew Point: 71 F (22 C)
Relative Humidity: 55%
Pressure (altimeter): 29.80 in. Hg (1009 hPa)
ob: VTCC 180830Z 23005KT 170V290 9999 BKN035 32/22 Q1009 NOSIG
cycle: 8

Station Type Date Time Source
VTCC TAF 2019/08/18 06:38 UTC NOAA

TAF VTCC 180500Z 1806/1912 22005KT 9999 BKN035
TEMPO 1809/1815 VRB15G25KT 5000 TSRA FEW020CB BKN025

Example: see airport list